sensor_id;sensor_type;location;lat;lon;timestamp;pressure;altitude;pressure_sealevel;temperature;humidity
49515;BME280;35415;47.870;16.058;2023-03-14T00:00:37;95531.09;;;5.36;78.98
49515;BME280;35415;47.870;16.058;2023-03-14T00:03:04;95552.97;;;5.38;79.42
49515;BME280;35415;47.870;16.058;2023-03-14T00:05:34;95552.38;;;5.46;78.67
49515;BME280;35415;47.870;16.058;2023-03-14T00:08:01;95585.94;;;5.57;79.39
49515;BME280;35415;47.870;16.058;2023-03-14T00:10:29;95625.22;;;5.91;79.32
49515;BME280;35415;47.870;16.058;2023-03-14T00:12:57;95558.31;;;5.38;79.30
49515;BME280;35415;47.870;16.058;2023-03-14T00:15:24;95554.03;;;5.37;80.22
49515;BME280;35415;47.870;16.058;2023-03-14T00:17:55;95529.31;;;5.26;80.17
49515;BME280;35415;47.870;16.058;2023-03-14T00:20:24;95522.69;;;5.19;79.77
49515;BME280;35415;47.870;16.058;2023-03-14T00:22:51;95502.03;;;4.95;80.22
49515;BME280;35415;47.870;16.058;2023-03-14T00:25:19;95597.06;;;5.64;80.35
49515;BME280;35415;47.870;16.058;2023-03-14T00:27:50;95536.47;;;5.31;79.62
49515;BME280;35415;47.870;16.058;2023-03-14T00:30:18;95597.59;;;5.66;78.35
49515;BME280;35415;47.870;16.058;2023-03-14T00:32:47;95505.97;;;5.03;79.91
49515;BME280;35415;47.870;16.058;2023-03-14T00:35:16;95489.81;;;4.84;80.46
49515;BME280;35415;47.870;16.058;2023-03-14T00:37:44;95528.69;;;4.95;81.08
49515;BME280;35415;47.870;16.058;2023-03-14T00:40:11;95548.34;;;5.09;81.29
49515;BME280;35415;47.870;16.058;2023-03-14T00:42:43;95591.09;;;5.33;81.40
49515;BME280;35415;47.870;16.058;2023-03-14T00:45:15;95539.63;;;4.94;81.64
49515;BME280;35415;47.870;16.058;2023-03-14T00:47:43;95569.22;;;5.36;81.70
49515;BME280;35415;47.870;16.058;2023-03-14T00:50:11;95581.22;;;5.39;81.94
49515;BME280;35415;47.870;16.058;2023-03-14T00:52:47;95512.97;;;4.94;82.18
49515;BME280;35415;47.870;16.058;2023-03-14T00:55:15;95529.16;;;5.07;82.35
49515;BME280;35415;47.870;16.058;2023-03-14T00:57:43;95568.50;;;5.26;82.01
49515;BME280;35415;47.870;16.058;2023-03-14T01:00:12;95471.56;;;4.62;81.80
49515;BME280;35415;47.870;16.058;2023-03-14T01:02:43;95560.34;;;5.07;83.00
49515;BME280;35415;47.870;16.058;2023-03-14T01:05:12;95519.19;;;4.69;82.93
49515;BME280;35415;47.870;16.058;2023-03-14T01:07:44;95505.91;;;4.64;82.71
49515;BME280;35415;47.870;16.058;2023-03-14T01:10:11;95482.00;;;4.48;82.82
49515;BME280;35415;47.870;16.058;2023-03-14T01:12:42;95517.66;;;4.58;83.40
49515;BME280;35415;47.870;16.058;2023-03-14T01:15:11;95501.19;;;4.45;83.56
49515;BME280;35415;47.870;16.058;2023-03-14T01:17:38;95485.78;;;4.37;83.79
49515;BME280;35415;47.870;16.058;2023-03-14T01:20:16;95530.97;;;4.58;84.62
49515;BME280;35415;47.870;16.058;2023-03-14T01:22:45;95490.31;;;4.37;84.05
49515;BME280;35415;47.870;16.058;2023-03-14T01:25:15;95544.72;;;4.80;84.53
49515;BME280;35415;47.870;16.058;2023-03-14T01:27:47;95445.44;;;4.05;85.18
49515;BME280;35415;47.870;16.058;2023-03-14T01:30:14;95555.09;;;4.81;85.25
49515;BME280;35415;47.870;16.058;2023-03-14T01:32:44;95518.44;;;4.53;86.19
49515;BME280;35415;47.870;16.058;2023-03-14T01:35:14;95462.41;;;4.24;85.37
49515;BME280;35415;47.870;16.058;2023-03-14T01:37:45;95456.84;;;4.10;85.79
49515;BME280;35415;47.870;16.058;2023-03-14T01:40:15;95502.28;;;4.39;85.86
49515;BME280;35415;47.870;16.058;2023-03-14T01:42:47;95474.63;;;4.30;85.55
49515;BME280;35415;47.870;16.058;2023-03-14T01:48:47;95550.94;;;4.60;85.99
49515;BME280;35415;47.870;16.058;2023-03-14T01:51:19;95548.53;;;4.59;86.65
49515;BME280;35415;47.870;16.058;2023-03-14T01:53:51;95509.00;;;4.21;86.76
49515;BME280;35415;47.870;16.058;2023-03-14T01:56:23;95536.63;;;4.31;86.59
49515;BME280;35415;47.870;16.058;2023-03-14T01:58:51;95486.38;;;4.09;87.74
49515;BME280;35415;47.870;16.058;2023-03-14T02:01:21;95497.00;;;4.24;87.74
49515;BME280;35415;47.870;16.058;2023-03-14T02:03:55;95473.09;;;4.09;87.93
49515;BME280;35415;47.870;16.058;2023-03-14T02:06:29;95455.56;;;3.92;87.72
49515;BME280;35415;47.870;16.058;2023-03-14T02:09:03;95505.22;;;4.33;87.58
49515;BME280;35415;47.870;16.058;2023-03-14T02:11:31;95449.44;;;3.92;87.44
49515;BME280;35415;47.870;16.058;2023-03-14T02:13:59;95520.06;;;4.49;87.30
49515;BME280;35415;47.870;16.058;2023-03-14T02:16:27;95514.75;;;4.49;87.43
49515;BME280;35415;47.870;16.058;2023-03-14T02:18:55;95524.06;;;4.51;87.28
49515;BME280;35415;47.870;16.058;2023-03-14T02:21:34;95506.50;;;4.45;86.87
49515;BME280;35415;47.870;16.058;2023-03-14T02:24:15;95427.91;;;3.93;86.83
49515;BME280;35415;47.870;16.058;2023-03-14T02:27:05;95526.97;;;4.50;86.23
49515;BME280;35415;47.870;16.058;2023-03-14T02:29:33;95447.34;;;3.89;86.53
49515;BME280;35415;47.870;16.058;2023-03-14T02:32:06;95571.47;;;4.55;86.08
49515;BME280;35415;47.870;16.058;2023-03-14T02:34:35;95507.66;;;4.24;85.92
49515;BME280;35415;47.870;16.058;2023-03-14T02:37:05;95500.47;;;4.14;85.53
49515;BME280;35415;47.870;16.058;2023-03-14T02:39:38;95575.16;;;4.59;85.55
49515;BME280;35415;47.870;16.058;2023-03-14T02:42:11;95457.44;;;3.87;85.17
49515;BME280;35415;47.870;16.058;2023-03-14T02:44:52;95536.88;;;4.34;85.13
49515;BME280;35415;47.870;16.058;2023-03-14T02:47:25;95577.03;;;4.48;85.56
49515;BME280;35415;47.870;16.058;2023-03-14T02:49:59;95605.50;;;4.63;85.59
49515;BME280;35415;47.870;16.058;2023-03-14T02:52:29;95581.81;;;4.61;85.29
49515;BME280;35415;47.870;16.058;2023-03-14T02:54:56;95596.19;;;4.65;85.46
49515;BME280;35415;47.870;16.058;2023-03-14T02:57:25;95533.69;;;4.32;84.86
49515;BME280;35415;47.870;16.058;2023-03-14T02:59:53;95495.72;;;4.06;85.14
49515;BME280;35415;47.870;16.058;2023-03-14T03:02:20;95534.78;;;4.16;84.64
49515;BME280;35415;47.870;16.058;2023-03-14T03:04:48;95497.31;;;4.07;84.69
49515;BME280;35415;47.870;16.058;2023-03-14T03:07:15;95577.84;;;4.48;84.69
49515;BME280;35415;47.870;16.058;2023-03-14T03:09:42;95579.47;;;4.44;84.80
49515;BME280;35415;47.870;16.058;2023-03-14T03:12:10;95596.72;;;4.62;84.98
49515;BME280;35415;47.870;16.058;2023-03-14T03:14:43;95634.25;;;4.66;84.40
49515;BME280;35415;47.870;16.058;2023-03-14T03:17:13;95531.88;;;4.07;84.22
49515;BME280;35415;47.870;16.058;2023-03-14T03:19:43;95619.38;;;4.60;84.42
49515;BME280;35415;47.870;16.058;2023-03-14T03:22:11;95605.03;;;4.40;84.03
49515;BME280;35415;47.870;16.058;2023-03-14T03:24:38;95612.72;;;4.52;83.82
49515;BME280;35415;47.870;16.058;2023-03-14T03:27:05;95580.28;;;4.25;83.87
49515;BME280;35415;47.870;16.058;2023-03-14T03:29:37;95606.34;;;4.48;83.61
49515;BME280;35415;47.870;16.058;2023-03-14T03:32:10;95549.16;;;4.15;83.51
49515;BME280;35415;47.870;16.058;2023-03-14T03:34:42;95591.16;;;4.48;83.92
49515;BME280;35415;47.870;16.058;2023-03-14T03:37:10;95541.19;;;4.15;83.23
49515;BME280;35415;47.870;16.058;2023-03-14T03:39:39;95629.44;;;4.78;83.33
49515;BME280;35415;47.870;16.058;2023-03-14T03:42:08;95611.09;;;4.71;83.94
49515;BME280;35415;47.870;16.058;2023-03-14T03:44:36;95626.75;;;4.83;83.70
49515;BME280;35415;47.870;16.058;2023-03-14T03:47:08;95579.16;;;4.51;83.85
49515;BME280;35415;47.870;16.058;2023-03-14T03:49:35;95569.84;;;4.59;83.20
49515;BME280;35415;47.870;16.058;2023-03-14T03:52:02;95600.69;;;4.70;83.15
49515;BME280;35415;47.870;16.058;2023-03-14T03:54:30;95599.09;;;4.74;83.47
49515;BME280;35415;47.870;16.058;2023-03-14T03:56:57;95605.97;;;4.85;83.47
49515;BME280;35415;47.870;16.058;2023-03-14T03:59:25;95637.94;;;4.90;83.21
49515;BME280;35415;47.870;16.058;2023-03-14T04:01:52;95539.56;;;4.24;83.37
49515;BME280;35415;47.870;16.058;2023-03-14T04:04:22;95618.81;;;4.73;83.51
49515;BME280;35415;47.870;16.058;2023-03-14T04:06:49;95658.47;;;4.90;83.32
49515;BME280;35415;47.870;16.058;2023-03-14T04:09:17;95607.66;;;4.56;82.88
49515;BME280;35415;47.870;16.058;2023-03-14T04:11:44;95591.16;;;4.48;83.11
49515;BME280;35415;47.870;16.058;2023-03-14T04:14:13;95605.28;;;4.54;82.73
49515;BME280;35415;47.870;16.058;2023-03-14T04:16:41;95635.31;;;4.75;82.53
49515;BME280;35415;47.870;16.058;2023-03-14T04:19:10;95595.41;;;4.49;82.61
49515;BME280;35415;47.870;16.058;2023-03-14T04:21:40;95630.53;;;4.67;82.84
49515;BME280;35415;47.870;16.058;2023-03-14T04:24:12;95587.19;;;4.41;82.49
49515;BME280;35415;47.870;16.058;2023-03-14T04:26:42;95688.53;;;4.95;82.42
49515;BME280;35415;47.870;16.058;2023-03-14T04:29:09;95638.00;;;4.60;82.58
49515;BME280;35415;47.870;16.058;2023-03-14T04:31:36;95706.09;;;5.01;82.30
49515;BME280;35415;47.870;16.058;2023-03-14T04:34:07;95637.72;;;4.66;82.25
49515;BME280;35415;47.870;16.058;2023-03-14T04:36:34;95590.13;;;4.39;82.22
49515;BME280;35415;47.870;16.058;2023-03-14T04:39:06;95584.81;;;4.39;82.38
49515;BME280;35415;47.870;16.058;2023-03-14T04:41:33;95666.72;;;4.78;82.23
49515;BME280;35415;47.870;16.058;2023-03-14T04:44:01;95640.16;;;4.58;81.92
49515;BME280;35415;47.870;16.058;2023-03-14T04:46:28;95652.91;;;4.71;81.44
49515;BME280;35415;47.870;16.058;2023-03-14T04:49:01;95678.72;;;4.75;81.84
49515;BME280;35415;47.870;16.058;2023-03-14T04:51:28;95707.47;;;5.04;81.13
49515;BME280;35415;47.870;16.058;2023-03-14T04:53:55;95699.72;;;4.97;81.59
49515;BME280;35415;47.870;16.058;2023-03-14T04:56:24;95649.44;;;4.65;82.55
49515;BME280;35415;47.870;16.058;2023-03-14T04:58:53;95676.59;;;4.52;82.48
49515;BME280;35415;47.870;16.058;2023-03-14T05:01:20;95738.63;;;4.93;82.13
49515;BME280;35415;47.870;16.058;2023-03-14T05:03:48;95701.66;;;4.71;81.99
49515;BME280;35415;47.870;16.058;2023-03-14T05:06:17;95726.13;;;4.78;82.45
49515;BME280;35415;47.870;16.058;2023-03-14T05:08:44;95727.75;;;4.74;82.49
49515;BME280;35415;47.870;16.058;2023-03-14T05:11:12;95723.22;;;4.75;82.68
49515;BME280;35415;47.870;16.058;2023-03-14T05:13:42;95728.53;;;4.75;82.81
49515;BME280;35415;47.870;16.058;2023-03-14T05:16:10;95684.88;;;4.61;82.75
49515;BME280;35415;47.870;16.058;2023-03-14T05:18:40;95721.59;;;4.84;84.02
49515;BME280;35415;47.870;16.058;2023-03-14T05:21:07;95668.38;;;4.48;83.78
49515;BME280;35415;47.870;16.058;2023-03-14T05:23:37;95625.81;;;4.23;83.78
49515;BME280;35415;47.870;16.058;2023-03-14T05:26:06;95664.13;;;4.37;84.23
49515;BME280;35415;47.870;16.058;2023-03-14T05:28:41;95617.03;;;4.07;84.44
49515;BME280;35415;47.870;16.058;2023-03-14T05:31:15;95701.91;;;4.60;83.69
49515;BME280;35415;47.870;16.058;2023-03-14T05:33:46;95662.53;;;4.21;83.48
49515;BME280;35415;47.870;16.058;2023-03-14T05:36:13;95740.81;;;4.56;83.85
49515;BME280;35415;47.870;16.058;2023-03-14T05:38:40;95695.53;;;4.25;84.50
49515;BME280;35415;47.870;16.058;2023-03-14T05:41:08;95771.41;;;4.68;84.78
49515;BME280;35415;47.870;16.058;2023-03-14T05:43:35;95778.88;;;4.76;84.55
49515;BME280;35415;47.870;16.058;2023-03-14T05:46:04;95735.47;;;4.61;84.38
49515;BME280;35415;47.870;16.058;2023-03-14T05:48:36;95763.97;;;4.70;85.22
49515;BME280;35415;47.870;16.058;2023-03-14T05:51:09;95702.69;;;4.35;84.64
49515;BME280;35415;47.870;16.058;2023-03-14T05:53:36;95696.06;;;4.27;84.77
49515;BME280;35415;47.870;16.058;2023-03-14T05:56:06;95758.34;;;4.67;85.45
49515;BME280;35415;47.870;16.058;2023-03-14T05:58:34;95697.94;;;4.21;84.98
49515;BME280;35415;47.870;16.058;2023-03-14T06:01:06;95737.34;;;4.55;85.71
49515;BME280;35415;47.870;16.058;2023-03-14T06:03:36;95781.25;;;4.83;85.84
49515;BME280;35415;47.870;16.058;2023-03-14T06:06:06;95789.25;;;4.83;86.37
49515;BME280;35415;47.870;16.058;2023-03-14T06:08:36;95692.88;;;4.20;86.08
49515;BME280;35415;47.870;16.058;2023-03-14T06:11:04;95770.91;;;4.71;86.35
49515;BME280;35415;47.870;16.058;2023-03-14T06:13:32;95670.22;;;4.12;86.79
49515;BME280;35415;47.870;16.058;2023-03-14T06:16:04;95767.66;;;4.69;86.64
49515;BME280;35415;47.870;16.058;2023-03-14T06:18:32;95767.97;;;4.58;86.76
49515;BME280;35415;47.870;16.058;2023-03-14T06:21:02;95751.72;;;4.59;87.26
49515;BME280;35415;47.870;16.058;2023-03-14T06:23:30;95771.41;;;4.68;87.01
49515;BME280;35415;47.870;16.058;2023-03-14T06:25:58;95726.69;;;4.40;87.26
49515;BME280;35415;47.870;16.058;2023-03-14T06:28:30;95776.22;;;4.71;86.75
49515;BME280;35415;47.870;16.058;2023-03-14T06:31:00;95700.31;;;4.28;87.22
49515;BME280;35415;47.870;16.058;2023-03-14T06:33:41;95698.19;;;4.35;86.97
49515;BME280;35415;47.870;16.058;2023-03-14T06:36:10;95763.72;;;4.72;88.53
49515;BME280;35415;47.870;16.058;2023-03-14T06:38:37;95747.72;;;4.62;88.81
49515;BME280;35415;47.870;16.058;2023-03-14T06:41:06;95798.84;;;4.99;89.18
49515;BME280;35415;47.870;16.058;2023-03-14T06:43:34;95702.72;;;4.45;89.80
49515;BME280;35415;47.870;16.058;2023-03-14T06:46:02;95692.34;;;4.38;89.91
49515;BME280;35415;47.870;16.058;2023-03-14T06:48:30;95698.19;;;4.50;90.66
49515;BME280;35415;47.870;16.058;2023-03-14T06:50:59;95726.69;;;4.60;91.17
49515;BME280;35415;47.870;16.058;2023-03-14T06:53:33;95746.66;;;4.78;90.46
49515;BME280;35415;47.870;16.058;2023-03-14T06:56:01;95709.63;;;4.61;90.42
49515;BME280;35415;47.870;16.058;2023-03-14T06:58:28;95772.19;;;5.09;90.75
49515;BME280;35415;47.870;16.058;2023-03-14T07:00:56;95814.50;;;5.36;90.53
49515;BME280;35415;47.870;16.058;2023-03-14T07:03:24;95810.25;;;5.35;90.62
49515;BME280;35415;47.870;16.058;2023-03-14T07:05:52;95727.19;;;4.88;90.21
49515;BME280;35415;47.870;16.058;2023-03-14T07:08:23;95756.75;;;5.06;90.21
49515;BME280;35415;47.870;16.058;2023-03-14T07:11:00;95824.09;;;5.58;90.14
49515;BME280;35415;47.870;16.058;2023-03-14T07:13:27;95838.72;;;5.70;89.88
49515;BME280;35415;47.870;16.058;2023-03-14T07:15:58;95750.03;;;5.19;90.27
49515;BME280;35415;47.870;16.058;2023-03-14T07:18:26;95842.69;;;5.78;89.49
49515;BME280;35415;47.870;16.058;2023-03-14T07:20:56;95778.53;;;5.39;88.57
49515;BME280;35415;47.870;16.058;2023-03-14T07:23:26;95773.19;;;5.44;88.62
49515;BME280;35415;47.870;16.058;2023-03-14T07:25:55;95822.16;;;5.79;88.48
49515;BME280;35415;47.870;16.058;2023-03-14T07:28:24;95765.13;;;5.54;88.73
49515;BME280;35415;47.870;16.058;2023-03-14T07:30:55;95820.25;;;5.94;89.00
49515;BME280;35415;47.870;16.058;2023-03-14T07:33:22;95783.75;;;5.74;88.73
49515;BME280;35415;47.870;16.058;2023-03-14T07:35:52;95833.25;;;6.16;89.44
49515;BME280;35415;47.870;16.058;2023-03-14T07:38:20;95745.66;;;5.64;89.31
49515;BME280;35415;47.870;16.058;2023-03-14T07:40:47;95784.97;;;6.02;89.55
49515;BME280;35415;47.870;16.058;2023-03-14T07:43:15;95812.09;;;6.30;89.12
49515;BME280;35415;47.870;16.058;2023-03-14T07:45:46;95766.88;;;5.94;88.93
49515;BME280;35415;47.870;16.058;2023-03-14T07:48:14;95794.78;;;6.17;89.77
49515;BME280;35415;47.870;16.058;2023-03-14T07:50:48;95825.69;;;6.33;89.25
49515;BME280;35415;47.870;16.058;2023-03-14T07:53:15;95823.75;;;6.44;88.63
49515;BME280;35415;47.870;16.058;2023-03-14T07:55:43;95804.81;;;6.41;89.22
49515;BME280;35415;47.870;16.058;2023-03-14T07:58:11;95810.94;;;6.46;89.19
49515;BME280;35415;47.870;16.058;2023-03-14T08:00:51;95754.75;;;6.17;90.09
49515;BME280;35415;47.870;16.058;2023-03-14T08:03:23;95829.50;;;6.67;89.73
49515;BME280;35415;47.870;16.058;2023-03-14T08:05:51;95806.75;;;6.69;90.16
49515;BME280;35415;47.870;16.058;2023-03-14T08:08:18;95782.56;;;6.50;89.61
49515;BME280;35415;47.870;16.058;2023-03-14T08:10:48;95792.41;;;6.60;89.20
49515;BME280;35415;47.870;16.058;2023-03-14T08:13:17;95809.94;;;6.76;90.24
49515;BME280;35415;47.870;16.058;2023-03-14T08:15:48;95809.69;;;6.73;89.59
49515;BME280;35415;47.870;16.058;2023-03-14T08:18:18;95747.16;;;6.40;88.81
49515;BME280;35415;47.870;16.058;2023-03-14T08:20:45;95754.84;;;6.46;88.49
49515;BME280;35415;47.870;16.058;2023-03-14T08:23:13;95799.63;;;6.93;88.41
49515;BME280;35415;47.870;16.058;2023-03-14T08:25:51;95803.06;;;6.99;87.72
49515;BME280;35415;47.870;16.058;2023-03-14T08:28:20;95817.97;;;7.05;88.03
49515;BME280;35415;47.870;16.058;2023-03-14T08:30:48;95745.03;;;6.71;87.31
49515;BME280;35415;47.870;16.058;2023-03-14T08:33:15;95775.75;;;7.02;86.75
49515;BME280;35415;47.870;16.058;2023-03-14T08:35:44;95809.47;;;7.32;89.12
49515;BME280;35415;47.870;16.058;2023-03-14T08:38:15;95798.84;;;7.22;88.31
49515;BME280;35415;47.870;16.058;2023-03-14T08:40:57;95809.59;;;7.46;88.69
49515;BME280;35415;47.870;16.058;2023-03-14T08:43:42;95814.31;;;7.54;88.94
49515;BME280;35415;47.870;16.058;2023-03-14T08:46:13;95741.78;;;7.08;87.78
49515;BME280;35415;47.870;16.058;2023-03-14T08:48:42;95751.41;;;7.33;88.03
49515;BME280;35415;47.870;16.058;2023-03-14T08:51:15;95782.63;;;7.66;88.30
49515;BME280;35415;47.870;16.058;2023-03-14T08:53:44;95746.63;;;7.53;88.12
49515;BME280;35415;47.870;16.058;2023-03-14T08:56:13;95757.41;;;7.48;87.49
49515;BME280;35415;47.870;16.058;2023-03-14T08:58:43;95809.75;;;8.02;86.07
49515;BME280;35415;47.870;16.058;2023-03-14T09:01:11;95810.75;;;8.11;85.68
49515;BME280;35415;47.870;16.058;2023-03-14T09:03:39;95791.59;;;8.23;86.62
49515;BME280;35415;47.870;16.058;2023-03-14T09:06:10;95786.94;;;8.29;86.09
49515;BME280;35415;47.870;16.058;2023-03-14T09:08:41;95790.03;;;8.41;84.83
49515;BME280;35415;47.870;16.058;2023-03-14T09:11:08;95703.81;;;7.96;84.70
49515;BME280;35415;47.870;16.058;2023-03-14T09:13:37;95787.63;;;8.58;84.92
49515;BME280;35415;47.870;16.058;2023-03-14T09:16:05;95756.00;;;8.41;83.77
49515;BME280;35415;47.870;16.058;2023-03-14T09:18:34;95791.41;;;8.76;83.32
49515;BME280;35415;47.870;16.058;2023-03-14T09:21:03;95702.31;;;8.28;83.35
49515;BME280;35415;47.870;16.058;2023-03-14T09:23:31;95756.31;;;8.72;82.28
49515;BME280;35415;47.870;16.058;2023-03-14T09:26:00;95764.19;;;8.83;81.65
49515;BME280;35415;47.870;16.058;2023-03-14T09:28:29;95768.06;;;9.09;81.96
49515;BME280;35415;47.870;16.058;2023-03-14T09:31:04;95740.81;;;9.02;81.64
49515;BME280;35415;47.870;16.058;2023-03-14T09:33:32;95748.13;;;9.29;84.32
49515;BME280;35415;47.870;16.058;2023-03-14T09:36:19;95735.31;;;9.26;83.22
49515;BME280;35415;47.870;16.058;2023-03-14T09:38:57;95763.38;;;9.47;82.50
49515;BME280;35415;47.870;16.058;2023-03-14T09:41:34;95743.09;;;9.41;82.41
49515;BME280;35415;47.870;16.058;2023-03-14T09:44:13;95666.66;;;9.11;83.63
49515;BME280;35415;47.870;16.058;2023-03-14T09:46:45;95715.06;;;9.61;83.39
49515;BME280;35415;47.870;16.058;2023-03-14T09:49:21;95659.69;;;9.38;83.59
49515;BME280;35415;47.870;16.058;2023-03-14T09:51:55;95674.38;;;9.54;84.28
49515;BME280;35415;47.870;16.058;2023-03-14T09:54:47;95666.03;;;9.69;82.65
49515;BME280;35415;47.870;16.058;2023-03-14T09:57:19;95716.28;;;10.18;83.16
49515;BME280;35415;47.870;16.058;2023-03-14T09:59:48;95710.91;;;10.32;83.24
49515;BME280;35415;47.870;16.058;2023-03-14T10:02:19;95700.16;;;10.32;83.56
49515;BME280;35415;47.870;16.058;2023-03-14T10:04:48;95745.75;;;10.82;83.66
49515;BME280;35415;47.870;16.058;2023-03-14T10:07:17;95703.03;;;10.58;81.75
49515;BME280;35415;47.870;16.058;2023-03-14T10:09:51;95684.03;;;10.54;81.75
49515;BME280;35415;47.870;16.058;2023-03-14T10:12:32;95690.63;;;10.71;81.18
49515;BME280;35415;47.870;16.058;2023-03-14T10:15:11;95721.41;;;11.09;79.86
49515;BME280;35415;47.870;16.058;2023-03-14T10:17:50;95781.13;;;11.42;79.75
49515;BME280;35415;47.870;16.058;2023-03-14T10:20:33;95718.13;;;11.21;80.23
49515;BME280;35415;47.870;16.058;2023-03-14T10:23:04;95742.81;;;11.45;80.13
49515;BME280;35415;47.870;16.058;2023-03-14T10:25:36;95699.94;;;11.18;80.52
49515;BME280;35415;47.870;16.058;2023-03-14T10:28:10;95728.91;;;11.52;81.34
49515;BME280;35415;47.870;16.058;2023-03-14T10:30:51;95769.41;;;11.78;80.08
49515;BME280;35415;47.870;16.058;2023-03-14T10:33:25;95726.25;;;11.61;80.34
49515;BME280;35415;47.870;16.058;2023-03-14T10:35:58;95718.97;;;11.70;80.15
49515;BME280;35415;47.870;16.058;2023-03-14T10:38:28;95680.41;;;11.43;80.49
49515;BME280;35415;47.870;16.058;2023-03-14T10:40:59;95658.09;;;11.43;81.53
49515;BME280;35415;47.870;16.058;2023-03-14T10:43:32;95751.91;;;12.07;81.81
49515;BME280;35415;47.870;16.058;2023-03-14T10:46:05;95753.19;;;12.09;83.29
49515;BME280;35415;47.870;16.058;2023-03-14T10:48:38;95744.19;;;12.14;82.84
49515;BME280;35415;47.870;16.058;2023-03-14T10:51:10;95667.34;;;11.68;82.79
49515;BME280;35415;47.870;16.058;2023-03-14T10:53:40;95754.66;;;12.24;83.39
49515;BME280;35415;47.870;16.058;2023-03-14T10:56:19;95758.34;;;12.28;82.73
49515;BME280;35415;47.870;16.058;2023-03-14T10:58:53;95748.81;;;12.30;82.10
49515;BME280;35415;47.870;16.058;2023-03-14T11:01:36;95670.25;;;11.80;81.15
49515;BME280;35415;47.870;16.058;2023-03-14T11:04:16;95675.81;;;11.84;79.73
49515;BME280;35415;47.870;16.058;2023-03-14T11:06:56;95678.66;;;11.87;80.37
49515;BME280;35415;47.870;16.058;2023-03-14T11:09:32;95733.88;;;12.24;78.99
49515;BME280;35415;47.870;16.058;2023-03-14T11:12:34;95759.59;;;12.30;79.89
49515;BME280;35415;47.870;16.058;2023-03-14T11:15:30;95704.03;;;12.03;80.57
49515;BME280;35415;47.870;16.058;2023-03-14T11:18:44;95703.72;;;12.05;80.28
49515;BME280;35415;47.870;16.058;2023-03-14T11:21:22;95712.59;;;11.97;82.73
49515;BME280;35415;47.870;16.058;2023-03-14T11:24:23;95698.47;;;11.91;85.18
49515;BME280;35415;47.870;16.058;2023-03-14T11:27:21;95753.84;;;12.23;87.35
49515;BME280;35415;47.870;16.058;2023-03-14T11:30:06;95697.50;;;11.87;89.83
49515;BME280;35415;47.870;16.058;2023-03-14T11:33:16;95751.78;;;12.12;89.82
49515;BME280;35415;47.870;16.058;2023-03-14T11:35:52;95779.91;;;12.37;88.54
49515;BME280;35415;47.870;16.058;2023-03-14T11:38:36;95723.03;;;11.90;88.16
49515;BME280;35415;47.870;16.058;2023-03-14T11:41:14;95727.94;;;11.88;88.32
49515;BME280;35415;47.870;16.058;2023-03-14T11:43:54;95774.47;;;12.19;88.85
49515;BME280;35415;47.870;16.058;2023-03-14T11:46:37;95704.41;;;11.62;89.32
49515;BME280;35415;47.870;16.058;2023-03-14T11:49:25;95687.88;;;11.55;88.58
49515;BME280;35415;47.870;16.058;2023-03-14T11:51:56;95706.09;;;11.58;89.06
49515;BME280;35415;47.870;16.058;2023-03-14T11:54:33;95756.47;;;11.80;88.57
49515;BME280;35415;47.870;16.058;2023-03-14T11:57:05;95787.38;;;11.91;89.15
49515;BME280;35415;47.870;16.058;2023-03-14T11:59:46;95798.00;;;11.88;88.54
49515;BME280;35415;47.870;16.058;2023-03-14T12:02:24;95713.78;;;11.34;88.54
49515;BME280;35415;47.870;16.058;2023-03-14T12:08:43;95773.94;;;11.60;88.01
49515;BME280;35415;47.870;16.058;2023-03-14T12:11:26;95691.81;;;11.09;85.10
49515;BME280;35415;47.870;16.058;2023-03-14T12:13:55;95753.75;;;11.49;82.87
49515;BME280;35415;47.870;16.058;2023-03-14T12:16:34;95766.25;;;11.45;80.95
49515;BME280;35415;47.870;16.058;2023-03-14T12:22:08;95716.72;;;10.93;79.23
49515;BME280;35415;47.870;16.058;2023-03-14T12:24:45;95769.28;;;11.21;78.10
49515;BME280;35415;47.870;16.058;2023-03-14T12:27:45;95690.53;;;10.76;76.12
49515;BME280;35415;47.870;16.058;2023-03-14T12:30:23;95714.44;;;10.86;76.25
49515;BME280;35415;47.870;16.058;2023-03-14T12:33:26;95696.38;;;10.78;75.39
49515;BME280;35415;47.870;16.058;2023-03-14T12:36:05;95785.59;;;11.25;74.96
49515;BME280;35415;47.870;16.058;2023-03-14T12:38:52;95766.84;;;11.11;74.81
49515;BME280;35415;47.870;16.058;2023-03-14T12:41:34;95712.63;;;10.73;74.06
49515;BME280;35415;47.870;16.058;2023-03-14T12:44:40;95714.03;;;10.70;73.66
49515;BME280;35415;47.870;16.058;2023-03-14T12:47:42;95786.34;;;11.17;73.73
49515;BME280;35415;47.870;16.058;2023-03-14T12:50:15;95798.69;;;11.18;71.93
49515;BME280;35415;47.870;16.058;2023-03-14T12:52:53;95784.50;;;11.03;71.17
49515;BME280;35415;47.870;16.058;2023-03-14T12:55:30;95759.25;;;10.91;70.90
49515;BME280;35415;47.870;16.058;2023-03-14T12:58:08;95789.09;;;11.03;70.17
49515;BME280;35415;47.870;16.058;2023-03-14T13:00:40;95758.66;;;10.71;69.93
49515;BME280;35415;47.870;16.058;2023-03-14T13:03:19;95763.63;;;10.78;69.76
49515;BME280;35415;47.870;16.058;2023-03-14T13:05:56;95764.41;;;10.78;69.41
49515;BME280;35415;47.870;16.058;2023-03-14T13:08:36;95801.41;;;10.95;69.80
49515;BME280;35415;47.870;16.058;2023-03-14T13:11:06;95775.88;;;10.70;70.46
49515;BME280;35415;47.870;16.058;2023-03-14T13:13:40;95796.25;;;10.85;68.93
49515;BME280;35415;47.870;16.058;2023-03-14T13:16:16;95721.22;;;10.39;68.89
49515;BME280;35415;47.870;16.058;2023-03-14T13:18:44;95761.13;;;10.45;68.84
49515;BME280;35415;47.870;16.058;2023-03-14T13:21:15;95730.00;;;10.31;69.21
49515;BME280;35415;47.870;16.058;2023-03-14T13:23:59;95756.25;;;10.47;69.54
49515;BME280;35415;47.870;16.058;2023-03-14T13:26:34;95757.16;;;10.43;69.07
49515;BME280;35415;47.870;16.058;2023-03-14T13:29:16;95767.41;;;10.41;69.68
49515;BME280;35415;47.870;16.058;2023-03-14T13:31:48;95791.88;;;10.53;70.55
49515;BME280;35415;47.870;16.058;2023-03-14T13:34:30;95768.25;;;10.28;73.60